Time;durP1;ratioP1;P1;durP2;ratioP2;P2;SDS_P1;SDS_P2;PMS_P1;PMS_P2;Temp;Humidity;BMP_temperature;BMP_pressure;BME280_temperature;BME280_humidity;BME280_pressure;Samples;Min_cycle;Max_cycle;Signal;HPM_P1;HPM_P2
2022/05/16 00:02:05;;;;;;;21.02;5.95;;;;;;;15.71;64.03;101154.41;5095321;28;20035;-81
2022/05/16 00:04:31;;;;;;;18.52;5.57;;;;;;;15.69;63.60;101142.84;5101054;28;20151;-81
2022/05/16 00:06:56;;;;;;;17.35;5.70;;;;;;;15.65;63.65;101138.72;5099028;28;20027;-81
2022/05/16 00:09:21;;;;;;;16.92;5.13;;;;;;;15.63;64.65;101139.84;5095729;28;20047;-81
2022/05/16 00:11:47;;;;;;;19.33;6.30;;;;;;;15.60;62.96;101140.97;5106278;28;20032;-81
2022/05/16 00:14:12;;;;;;;22.73;5.70;;;;;;;15.56;62.34;101144.94;5094836;28;20111;-81
2022/05/16 00:16:38;;;;;;;17.23;5.47;;;;;;;15.51;64.67;101141.81;5098709;28;20071;-81
2022/05/16 00:19:04;;;;;;;16.00;5.32;;;;;;;15.50;62.25;101137.38;5105122;27;20032;-81
2022/05/16 00:21:30;;;;;;;15.75;5.47;;;;;;;15.47;65.50;101124.09;5103493;28;20019;-81
2022/05/16 00:23:55;;;;;;;20.60;5.68;;;;;;;15.46;62.09;101125.09;5092498;28;20081;-82
2022/05/16 00:26:20;;;;;;;20.88;6.20;;;;;;;15.46;62.97;101125.09;5098248;28;20020;-81
2022/05/16 00:28:46;;;;;;;22.58;6.00;;;;;;;15.38;62.50;101125.78;5092204;28;20114;-81
2022/05/16 00:31:11;;;;;;;18.30;5.93;;;;;;;15.34;63.01;101125.22;5107599;28;20027;-81
2022/05/16 00:33:36;;;;;;;16.65;6.05;;;;;;;15.34;63.25;101129.75;5105018;28;20539;-81
2022/05/16 00:36:02;;;;;;;16.77;5.70;;;;;;;15.32;63.15;101127.19;5095883;27;20028;-81
2022/05/16 00:38:27;;;;;;;21.08;6.18;;;;;;;15.28;62.99;101120.31;5073281;28;20024;-81
2022/05/16 00:40:55;;;;;;;19.23;5.85;;;;;;;15.23;64.67;101117.19;5080081;28;20109;-81
2022/05/16 00:43:43;;;;;;;17.52;5.72;;;;;;;15.27;64.54;101118.63;5094930;28;20024;-81
2022/05/16 00:46:08;;;;;;;17.05;6.07;;;;;;;15.22;64.65;101128.16;5111050;28;20482;-82
2022/05/16 00:48:33;;;;;;;21.60;6.85;;;;;;;15.16;67.51;101116.00;5088023;28;20024;-81
2022/05/16 00:51:01;;;;;;;18.30;6.18;;;;;;;15.10;66.21;101121.97;5091310;28;20086;-81
2022/05/16 00:53:26;;;;;;;18.52;6.25;;;;;;;15.13;65.17;101117.13;5084537;28;20032;-81
2022/05/16 00:55:51;;;;;;;22.88;7.15;;;;;;;15.09;66.16;101112.97;5081510;28;20028;-81
2022/05/16 00:58:17;;;;;;;19.05;6.43;;;;;;;15.07;64.75;101114.97;5086902;28;20039;-81
2022/05/16 01:00:44;;;;;;;20.48;6.20;;;;;;;15.02;64.70;101109.09;5099946;28;20427;-82
2022/05/16 01:06:06;;;;;;;18.70;6.28;;;;;;;14.94;64.94;101100.81;5086315;28;20043;-82
2022/05/16 01:08:35;;;;;;;18.38;5.53;;;;;;;14.91;67.08;101101.94;5088925;28;20028;-81
2022/05/16 01:11:06;;;;;;;18.43;6.13;;;;;;;14.88;64.99;101107.63;5099500;28;20038;-81
2022/05/16 01:13:32;;;;;;;19.02;6.38;;;;;;;14.88;65.30;101101.34;5098609;28;20023;-81
2022/05/16 01:16:00;;;;;;;23.13;6.93;;;;;;;14.89;65.93;101105.75;5110699;28;20371;-81
2022/05/16 01:18:27;;;;;;;17.48;6.15;;;;;;;14.88;65.53;101109.47;5064223;28;20045;-81
2022/05/16 01:21:01;;;;;;;19.05;6.97;;;;;;;14.82;65.41;101114.41;5063893;28;20029;-81
2022/05/16 01:23:33;;;;;;;20.95;6.57;;;;;;;14.79;65.68;101113.84;5066874;28;20045;-81
2022/05/16 01:26:04;;;;;;;20.92;6.03;;;;;;;14.75;66.71;101121.34;5057628;28;20567;-81
2022/05/16 01:28:29;;;;;;;18.33;6.28;;;;;;;14.75;65.64;101117.81;5051526;28;20396;-81
2022/05/16 01:30:54;;;;;;;20.83;6.50;;;;;;;14.69;65.30;101111.06;5055835;28;20030;-81
2022/05/16 01:33:22;;;;;;;22.15;6.90;;;;;;;14.65;67.26;101112.31;5050407;28;20051;-81
2022/05/16 01:35:48;;;;;;;18.05;5.80;;;;;;;14.62;67.47;101101.75;5057022;28;20048;-81
2022/05/16 01:38:18;;;;;;;19.35;6.88;;;;;;;14.60;68.08;101109.97;5053262;28;20047;-81
2022/05/16 01:40:48;;;;;;;22.23;6.20;;;;;;;14.57;67.56;101103.97;5060429;28;20035;-81
2022/05/16 01:43:13;;;;;;;17.02;6.53;;;;;;;14.54;67.70;101102.41;5065380;28;20032;-81
2022/05/16 01:45:44;;;;;;;20.95;5.75;;;;;;;14.54;67.98;101099.69;5059036;28;20029;-81
2022/05/16 01:48:11;;;;;;;22.17;7.28;;;;;;;14.51;68.43;101092.69;5057187;28;20384;-81
2022/05/16 01:50:37;;;;;;;18.77;6.80;;;;;;;14.55;68.54;101095.13;5055652;28;20025;-81
2022/05/16 01:53:03;;;;;;;19.55;6.68;;;;;;;14.57;67.31;101093.13;5061249;28;20048;-81
2022/05/16 01:55:28;;;;;;;22.65;7.00;;;;;;;14.59;67.77;101094.72;5049684;28;20021;-81
2022/05/16 01:57:54;;;;;;;20.13;5.90;;;;;;;14.60;68.52;101091.03;5051555;28;20037;-81
2022/05/16 02:00:19;;;;;;;22.50;6.40;;;;;;;14.67;66.52;101085.97;5050662;28;20060;-82
2022/05/16 02:02:45;;;;;;;16.70;6.55;;;;;;;14.70;69.36;101079.44;5054938;28;20040;-81
2022/05/16 02:05:18;;;;;;;21.27;6.60;;;;;;;14.73;67.31;101082.75;5049773;28;20080;-82
2022/05/16 02:07:45;;;;;;;21.42;7.05;;;;;;;14.74;68.55;101078.19;5052203;28;20105;-81
2022/05/16 02:10:11;;;;;;;21.50;6.50;;;;;;;14.81;67.20;101079.38;5060737;28;20028;-82
2022/05/16 02:12:37;;;;;;;18.67;6.47;;;;;;;14.85;66.17;101078.13;5059547;28;20029;-81
2022/05/16 02:15:08;;;;;;;22.88;6.38;;;;;;;14.92;65.85;101063.06;5052490;28;20032;-81
2022/05/16 02:17:34;;;;;;;20.10;7.72;;;;;;;14.96;66.39;101067.19;5070326;27;20056;-81
2022/05/16 02:19:59;;;;;;;19.35;6.13;;;;;;;15.02;66.02;101069.38;5094620;28;20081;-81
2022/05/16 02:25:09;;;;;;;20.92;7.13;;;;;;;15.11;64.76;101072.22;5104332;28;20042;-81
2022/05/16 02:27:34;;;;;;;20.20;6.57;;;;;;;15.07;67.77;101068.09;5084444;28;20024;-81
2022/05/16 02:29:59;;;;;;;16.80;6.60;;;;;;;15.11;65.82;101061.41;5108542;28;20340;-81
2022/05/16 02:32:25;;;;;;;16.63;6.40;;;;;;;15.13;66.20;101056.72;5094954;28;20123;-81
2022/05/16 02:34:50;;;;;;;16.25;6.07;;;;;;;15.16;65.65;101051.88;5085743;28;20437;-81
2022/05/16 02:37:16;;;;;;;18.95;6.45;;;;;;;15.15;66.38;101052.03;5100473;27;20060;-81
2022/05/16 02:39:44;;;;;;;19.08;6.38;;;;;;;15.19;65.01;101050.75;5092260;28;20093;-81
2022/05/16 02:42:11;;;;;;;18.73;6.70;;;;;;;15.19;64.74;101050.75;5095840;28;20024;-82
2022/05/16 02:44:38;;;;;;;17.95;6.05;;;;;;;15.23;64.52;101043.19;5104852;28;20463;-81
2022/05/16 02:47:05;;;;;;;19.42;6.22;;;;;;;15.26;64.48;101040.25;5071868;28;20044;-81
2022/05/16 02:49:31;;;;;;;21.42;6.25;;;;;;;15.31;64.27;101037.97;5101700;27;20073;-82
2022/05/16 02:51:56;;;;;;;20.42;6.85;;;;;;;15.34;63.67;101040.38;5090250;28;20433;-82
2022/05/16 02:54:21;;;;;;;17.00;6.32;;;;;;;15.35;64.01;101042.94;5107528;28;20367;-81
2022/05/16 02:56:46;;;;;;;20.17;6.50;;;;;;;15.36;64.45;101044.69;5073100;28;20130;-81
2022/05/16 02:59:12;;;;;;;17.77;5.82;;;;;;;15.36;64.12;101031.13;5095048;28;20045;-81
2022/05/16 03:01:37;;;;;;;18.20;5.95;;;;;;;15.35;64.43;101026.72;5097174;28;20026;-82
2022/05/16 03:04:02;;;;;;;20.30;6.80;;;;;;;15.37;64.34;101029.28;5073279;28;20032;-82
2022/05/16 03:06:28;;;;;;;16.45;5.95;;;;;;;15.36;63.61;101020.31;5082028;28;20024;-82
2022/05/16 03:08:53;;;;;;;19.33;6.65;;;;;;;15.36;65.17;101025.72;5091668;28;20077;-82
2022/05/16 03:11:18;;;;;;;18.35;6.32;;;;;;;15.34;65.48;101022.31;5078705;28;20021;-81
2022/05/16 03:13:44;;;;;;;15.00;5.40;;;;;;;15.32;64.97;101023.44;5086502;28;20036;-81
2022/05/16 03:16:10;;;;;;;16.67;5.38;;;;;;;15.29;64.67;101024.56;5076938;28;20031;-81
2022/05/16 03:18:35;;;;;;;17.02;6.13;;;;;;;15.28;65.08;101025.53;5098797;27;20039;-81
2022/05/16 03:21:00;;;;;;;19.33;6.72;;;;;;;15.25;65.55;101020.41;5079350;28;20058;-81
2022/05/16 03:23:26;;;;;;;17.02;5.60;;;;;;;15.20;66.60;101020.84;5096739;28;20051;-82
2022/05/16 03:25:52;;;;;;;17.17;6.65;;;;;;;15.15;66.51;101030.38;5084975;28;20089;-81
2022/05/16 03:28:17;;;;;;;17.52;6.15;;;;;;;15.11;66.23;101026.22;5094064;28;20159;-81
2022/05/16 03:30:43;;;;;;;19.83;6.35;;;;;;;15.08;67.64;101030.06;5088142;28;20172;-81
2022/05/16 03:33:09;;;;;;;19.00;5.70;;;;;;;15.07;66.63;101035.63;5077059;28;20032;-81
2022/05/16 03:35:35;;;;;;;18.05;6.45;;;;;;;15.03;67.49;101030.47;5089256;27;20027;-81
2022/05/16 03:38:01;;;;;;;19.77;6.63;;;;;;;15.01;68.14;101027.03;5110611;27;20191;-81
2022/05/16 03:40:45;;;;;;;17.10;5.72;;;;;;;14.98;68.30;101024.63;5111926;28;20064;-81
2022/05/16 03:43:13;;;;;;;17.40;5.93;;;;;;;14.93;69.16;101029.56;5079786;28;20040;-81
2022/05/16 03:45:38;;;;;;;15.73;6.05;;;;;;;14.90;67.83;101015.47;5080246;28;20023;-81
2022/05/16 03:48:05;;;;;;;15.15;5.70;;;;;;;14.88;68.35;101021.03;5090158;27;20042;-81
2022/05/16 03:50:32;;;;;;;19.13;6.25;;;;;;;14.83;69.66;101023.25;5106780;28;20452;-81
2022/05/16 03:52:59;;;;;;;18.08;5.93;;;;;;;14.80;69.37;101020.84;5080542;28;20350;-81
2022/05/16 03:55:26;;;;;;;16.40;5.47;;;;;;;14.78;68.78;101026.38;5108533;28;20108;-81
2022/05/16 03:57:52;;;;;;;13.98;5.45;;;;;;;14.75;69.15;101020.41;5080376;28;20447;-81
2022/05/16 04:00:18;;;;;;;20.70;6.75;;;;;;;14.73;69.61;101022.38;5110558;28;20027;-81
2022/05/16 04:02:44;;;;;;;15.52;6.18;;;;;;;14.76;67.83;101019.38;5083763;28;20135;-82
2022/05/16 04:05:15;;;;;;;19.13;6.15;;;;;;;14.75;68.07;101026.66;5094982;28;20123;-82
2022/05/16 04:07:40;;;;;;;16.80;5.70;;;;;;;14.75;69.53;101018.53;5083657;28;20033;-81
2022/05/16 04:10:06;;;;;;;20.00;6.28;;;;;;;14.78;68.64;101022.81;5077690;28;20408;-81
2022/05/16 04:12:31;;;;;;;20.52;5.88;;;;;;;14.84;66.11;101025.84;5082570;28;20384;-81
2022/05/16 04:14:56;;;;;;;19.92;6.60;;;;;;;14.87;67.64;101019.28;5084456;28;20028;-81
2022/05/16 04:17:22;;;;;;;16.90;6.45;;;;;;;14.89;69.00;101030.84;5098004;28;20127;-81
2022/05/16 04:19:47;;;;;;;16.33;6.65;;;;;;;14.93;69.09;101031.44;5094442;28;20430;-81
2022/05/16 04:22:12;;;;;;;16.33;6.05;;;;;;;14.98;66.32;101034.59;5104482;28;20035;-81
2022/05/16 04:24:38;;;;;;;16.15;5.82;;;;;;;14.99;67.58;101034.47;5078838;28;20040;-81
2022/05/16 04:27:04;;;;;;;18.35;6.68;;;;;;;15.07;66.08;101024.81;5082768;28;20031;-81
2022/05/16 04:29:30;;;;;;;17.20;6.20;;;;;;;15.15;65.00;101033.06;5077720;28;20085;-81
2022/05/16 04:31:55;;;;;;;20.85;6.78;;;;;;;15.20;65.04;101031.66;5075974;28;20023;-81
2022/05/16 04:34:20;;;;;;;17.15;6.30;;;;;;;15.24;64.84;101037.66;5101705;28;20058;-81
2022/05/16 04:36:46;;;;;;;19.20;6.30;;;;;;;15.29;65.06;101032.69;5085071;27;20042;-81
2022/05/16 04:39:11;;;;;;;21.23;6.30;;;;;;;15.31;65.10;101027.97;5082631;28;20032;-81
2022/05/16 04:44:20;;;;;;;16.10;6.70;;;;;;;15.37;65.68;101024.72;5102164;28;20101;-81
2022/05/16 04:46:46;;;;;;;20.25;6.55;;;;;;;15.42;64.68;101023.44;5096494;28;20055;-81
2022/05/16 04:49:11;;;;;;;18.60;6.75;;;;;;;15.46;65.41;101031.16;5106055;27;20131;-81
2022/05/16 04:51:37;;;;;;;18.75;6.57;;;;;;;15.51;64.54;101036.16;5106182;28;20028;-81
2022/05/16 04:54:02;;;;;;;18.02;6.40;;;;;;;15.53;64.83;101026.91;5087699;28;20030;-81
2022/05/16 04:56:28;;;;;;;17.88;6.43;;;;;;;15.60;64.39;101037.16;5098954;27;20038;-81
2022/05/16 04:58:53;;;;;;;16.20;6.55;;;;;;;15.64;64.87;101035.91;5077607;28;20020;-81
2022/05/16 05:01:18;;;;;;;19.65;6.35;;;;;;;15.70;65.03;101044.28;5105405;28;20043;-81
2022/05/16 05:03:44;;;;;;;19.60;6.05;;;;;;;15.76;64.45;101040.16;5103308;28;20026;-81
2022/05/16 05:06:09;;;;;;;21.55;6.43;;;;;;;15.82;64.21;101036.06;5102765;28;20024;-81
2022/05/16 05:08:35;;;;;;;16.23;6.22;;;;;;;15.88;64.17;101024.66;5094641;28;20023;-82
2022/05/16 05:16:29;;;;;;;20.45;6.30;;;;;;;16.08;63.76;101042.63;5102483;28;20038;-81
2022/05/16 05:18:55;;;;;;;18.40;5.57;;;;;;;16.14;63.52;101043.06;5117027;27;20028;-81
2022/05/16 05:21:20;;;;;;;18.48;6.70;;;;;;;16.20;63.87;101042.47;5100828;27;20467;-81
2022/05/16 05:23:46;;;;;;;15.40;5.47;;;;;;;16.27;62.95;101045.44;5076027;28;20073;-81
2022/05/16 05:26:12;;;;;;;18.67;5.80;;;;;;;16.30;64.17;101039.75;5075376;28;20046;-81
2022/05/16 05:28:39;;;;;;;16.00;5.85;;;;;;;16.35;62.55;101040.16;5091455;28;20036;-81
2022/05/16 05:31:09;;;;;;;18.88;6.65;;;;;;;16.39;62.06;101028.88;5084555;28;20035;-81
2022/05/16 05:33:34;;;;;;;14.57;6.15;;;;;;;16.45;63.62;101037.44;5100666;28;20028;-81
2022/05/16 05:36:00;;;;;;;17.83;6.38;;;;;;;16.52;64.18;101044.00;5098558;27;20078;-80
2022/05/16 05:38:26;;;;;;;17.65;5.88;;;;;;;16.56;63.76;101040.84;5080667;28;20050;-80
2022/05/16 05:40:51;;;;;;;16.60;5.97;;;;;;;16.63;63.53;101061.94;5103536;28;20024;-81
2022/05/16 05:43:16;;;;;;;13.73;5.75;;;;;;;16.68;63.72;101054.22;5076684;28;20042;-81
2022/05/16 05:45:43;;;;;;;15.50;5.28;;;;;;;16.72;63.02;101058.34;5101213;28;20035;-81
2022/05/16 05:48:09;;;;;;;17.70;6.10;;;;;;;16.79;64.72;101062.19;5076723;28;20024;-80
2022/05/16 05:50:34;;;;;;;15.73;5.95;;;;;;;16.84;62.36;101056.28;5106980;28;20030;-81
2022/05/16 05:52:59;;;;;;;19.15;7.00;;;;;;;16.86;63.68;101063.28;5103311;28;20026;-81
2022/05/16 05:55:25;;;;;;;15.48;5.57;;;;;;;16.90;63.24;101062.03;5080487;28;20028;-81
2022/05/16 05:57:52;;;;;;;15.25;5.70;;;;;;;16.96;63.16;101071.44;5106933;28;20423;-81
2022/05/16 06:00:19;;;;;;;19.10;6.32;;;;;;;17.00;62.59;101072.88;5104208;28;20027;-81
2022/05/16 06:02:45;;;;;;;15.05;5.63;;;;;;;17.03;61.82;101069.84;5085420;28;20046;-81
2022/05/16 06:05:13;;;;;;;18.90;5.90;;;;;;;17.09;62.39;101074.69;5103959;28;20455;-81
2022/05/16 06:07:39;;;;;;;15.13;5.30;;;;;;;17.15;62.57;101077.81;5076921;28;20035;-81
2022/05/16 06:10:06;;;;;;;19.10;5.53;;;;;;;17.20;61.62;101073.63;5097642;28;20455;-81
2022/05/16 06:12:32;;;;;;;13.70;5.55;;;;;;;17.25;62.74;101078.63;5104561;28;20038;-81
2022/05/16 06:14:57;;;;;;;17.27;5.97;;;;;;;17.29;61.85;101082.72;5109245;27;20102;-81
2022/05/16 06:17:23;;;;;;;14.15;5.68;;;;;;;17.33;61.89;101083.28;5076678;28;20140;-81
2022/05/16 06:19:48;;;;;;;15.40;5.65;;;;;;;17.39;61.94;101091.66;5112264;27;20362;-81
2022/05/16 06:22:14;;;;;;;16.63;5.50;;;;;;;17.43;61.65;101093.09;5094419;28;20031;-81
2022/05/16 06:27:23;;;;;;;19.02;5.65;;;;;;;17.54;61.74;101083.00;5091514;28;20514;-81
2022/05/16 06:29:49;;;;;;;15.38;5.32;;;;;;;17.58;61.49;101100.72;5073105;28;20035;-81
2022/05/16 06:32:14;;;;;;;19.13;6.30;;;;;;;17.60;60.97;101099.59;5096897;28;20066;-81
2022/05/16 06:34:39;;;;;;;13.50;5.30;;;;;;;17.63;61.77;101098.44;5095483;28;20031;-81
2022/05/16 06:37:05;;;;;;;16.85;5.93;;;;;;;17.64;62.16;101090.13;5098222;27;20039;-81
2022/05/16 06:39:30;;;;;;;18.23;5.93;;;;;;;17.66;61.65;101098.13;5107883;27;20039;-80
2022/05/16 06:41:56;;;;;;;18.98;5.85;;;;;;;17.68;61.90;101093.38;5100397;28;20141;-81
2022/05/16 06:44:21;;;;;;;26.30;7.20;;;;;;;17.71;62.76;101101.22;5076989;28;20024;-82
2022/05/16 06:46:46;;;;;;;16.55;5.93;;;;;;;17.73;62.62;101104.66;5077445;28;20030;-81
2022/05/16 06:49:12;;;;;;;18.85;6.72;;;;;;;17.78;62.21;101098.75;5080283;28;20102;-82
2022/05/16 06:51:38;;;;;;;19.83;6.00;;;;;;;17.82;61.80;101105.59;5073010;28;20016;-83
2022/05/16 06:54:05;;;;;;;15.48;6.07;;;;;;;17.82;62.56;101101.00;5090078;28;20077;-83
2022/05/16 06:56:30;;;;;;;17.77;5.70;;;;;;;17.87;63.05;101102.41;5078877;28;20035;-83
2022/05/16 06:58:56;;;;;;;18.98;6.57;;;;;;;17.89;61.97;101109.41;5091136;28;20483;-84
2022/05/16 07:01:21;;;;;;;17.95;5.47;;;;;;;17.92;62.66;101106.41;5099172;28;20031;-84
2022/05/16 07:03:46;;;;;;;16.50;5.07;;;;;;;17.96;62.25;101115.94;5094347;28;20078;-80
2022/05/16 07:06:14;;;;;;;19.25;5.63;;;;;;;17.99;62.31;101114.78;5096247;28;20398;-80
2022/05/16 07:08:40;;;;;;;20.10;6.35;;;;;;;18.04;63.66;101103.44;5095128;28;20039;-80
2022/05/16 07:11:06;;;;;;;19.45;6.10;;;;;;;18.09;62.92;101121.00;5090999;28;20023;-80
2022/05/16 07:13:31;;;;;;;14.52;5.07;;;;;;;18.15;62.11;101111.38;5072970;28;20368;-80
2022/05/16 07:15:56;;;;;;;18.38;5.10;;;;;;;18.20;63.41;101117.22;5090555;28;20032;-81
2022/05/16 07:18:23;;;;;;;16.20;5.68;;;;;;;18.26;62.96;101118.44;5075640;28;20028;-78
2022/05/16 07:20:49;;;;;;;19.13;5.28;;;;;;;18.33;63.89;101124.97;5090865;28;20024;-78
2022/05/16 07:23:14;;;;;;;14.43;5.20;;;;;;;18.37;62.63;101122.81;5081563;28;20032;-78
2022/05/16 07:28:23;;;;;;;22.92;6.50;;;;;;;18.55;62.63;101125.50;5091162;28;20408;-80
2022/05/16 07:30:49;;;;;;;21.58;6.22;;;;;;;18.65;63.30;101124.41;5097521;28;20031;-79
2022/05/16 07:33:15;;;;;;;17.30;5.13;;;;;;;18.74;64.39;101121.72;5075462;28;20032;-79
2022/05/16 07:35:41;;;;;;;22.05;5.47;;;;;;;18.84;63.84;101125.19;5090596;28;20168;-79
2022/05/16 07:38:06;;;;;;;17.30;5.15;;;;;;;18.85;63.92;101127.75;5091546;28;20076;-79
2022/05/16 07:40:34;;;;;;;20.50;5.20;;;;;;;18.92;62.99;101124.41;5071785;28;20035;-79
2022/05/16 07:42:59;;;;;;;13.23;4.78;;;;;;;18.99;62.68;101128.19;5101618;28;20376;-80
2022/05/16 07:45:25;;;;;;;15.43;4.28;;;;;;;19.06;63.54;101139.31;5079366;28;20043;-79
2022/05/16 07:47:50;;;;;;;14.32;4.90;;;;;;;19.10;63.70;101141.56;5098893;28;20149;-79
2022/05/16 07:50:16;;;;;;;16.92;4.82;;;;;;;19.11;63.81;101140.56;5092901;28;20046;-80
2022/05/16 07:52:48;;;;;;;13.07;4.47;;;;;;;19.16;64.30;101145.50;5091155;28;20391;-80
2022/05/16 07:55:20;;;;;;;17.88;4.63;;;;;;;19.19;63.49;101150.63;5083170;28;20027;-80
2022/05/16 07:57:45;;;;;;;17.73;5.80;;;;;;;19.21;62.60;101148.63;5072325;28;20070;-79
2022/05/16 08:00:12;;;;;;;16.35;4.45;;;;;;;19.27;62.59;101158.00;5083629;28;20069;-80
2022/05/16 08:02:39;;;;;;;14.00;4.75;;;;;;;19.34;62.72;101143.56;5096240;28;20444;-79
2022/05/16 08:05:05;;;;;;;17.88;5.35;;;;;;;19.45;62.85;101147.03;5103980;28;20024;-79
2022/05/16 08:07:31;;;;;;;14.82;4.95;;;;;;;19.49;63.40;101145.69;5090512;28;20466;-79
2022/05/16 08:12:41;;;;;;;17.55;5.32;;;;;;;19.66;61.51;101146.59;5115199;27;20139;-77
2022/05/16 08:15:07;;;;;;;15.95;4.15;;;;;;;19.69;62.07;101144.41;5086050;28;20028;-79
2022/05/16 08:17:33;;;;;;;19.75;5.07;;;;;;;19.80;62.12;101154.16;5097071;27;20044;-79
2022/05/16 08:19:58;;;;;;;14.75;4.50;;;;;;;19.95;62.14;101157.09;5134878;27;20526;-79
2022/05/16 08:22:28;;;;;;;11.88;4.07;;;;;;;20.01;62.26;101155.59;5094612;28;20039;-78
2022/05/16 08:24:54;;;;;;;12.60;4.53;;;;;;;20.20;62.49;101155.28;5100892;28;20028;-79
2022/05/16 08:27:19;;;;;;;13.55;3.85;;;;;;;20.32;60.68;101157.69;5107316;28;20043;-79
2022/05/16 08:29:45;;;;;;;11.43;3.88;;;;;;;20.41;60.90;101164.84;5101645;28;20020;-79
2022/05/16 08:32:14;;;;;;;13.10;4.30;;;;;;;20.49;60.54;101156.66;5103392;28;20028;-80
2022/05/16 08:34:39;;;;;;;12.68;3.78;;;;;;;20.57;59.83;101158.53;5099648;28;20055;-79
2022/05/16 08:39:52;;;;;;;12.05;4.15;;;;;;;20.78;59.54;101150.72;5103058;28;20092;-78
2022/05/16 08:42:21;;;;;;;11.88;3.72;;;;;;;20.89;60.42;101148.66;5081655;28;20138;-78
2022/05/16 08:44:56;;;;;;;9.93;3.72;;;;;;;20.90;60.53;101151.22;5106516;27;20070;-78
2022/05/16 08:47:51;;;;;;;12.45;3.78;;;;;;;20.95;59.37;101137.03;5098231;27;20027;-78
2022/05/16 08:50:23;;;;;;;13.52;3.67;;;;;;;21.02;59.35;101148.13;5105578;27;20027;-78
2022/05/16 08:53:12;;;;;;;14.50;3.92;;;;;;;21.10;58.80;101151.69;5105938;27;20054;-79
2022/05/16 08:55:42;;;;;;;13.40;3.80;;;;;;;21.25;58.48;101154.53;5091242;28;20058;-78
2022/05/16 08:58:09;;;;;;;13.50;3.80;;;;;;;21.29;57.39;101155.06;5088187;28;20039;-78
2022/05/16 09:00:47;;;;;;;13.93;4.18;;;;;;;21.35;57.29;101148.88;5118176;27;20055;-78
2022/05/16 09:03:33;;;;;;;9.38;3.40;;;;;;;21.49;57.58;101150.00;5111830;27;20067;-78
2022/05/16 09:06:02;;;;;;;9.35;3.78;;;;;;;21.59;57.05;101149.84;5108823;28;20080;-78
2022/05/16 09:08:40;;;;;;;13.15;4.38;;;;;;;21.63;58.17;101152.03;5112657;27;20093;-78
2022/05/16 09:11:19;;;;;;;15.75;4.47;;;;;;;21.75;56.80;101149.75;5115570;27;20043;-78
2022/05/16 09:13:54;;;;;;;13.23;4.22;;;;;;;21.85;55.88;101160.50;5107281;28;20032;-78
2022/05/16 09:16:46;;;;;;;11.70;3.75;;;;;;;21.92;56.87;101158.75;5106637;28;20062;-79
2022/05/16 09:19:28;;;;;;;11.05;4.13;;;;;;;21.99;56.34;101158.84;5108313;27;20039;-79
2022/05/16 09:22:06;;;;;;;13.20;4.15;;;;;;;22.00;57.19;101161.41;5087782;28;20040;-78
2022/05/16 09:24:35;;;;;;;8.73;3.50;;;;;;;22.02;56.06;101160.38;5084389;28;20045;-79
2022/05/16 09:30:11;;;;;;;;;;;;;;;21.97;57.17;101159.03;5106645;28;20088;-78
2022/05/16 09:32:42;;;;;;;9.32;3.95;;;;;;;22.11;56.69;101164.78;5109118;27;19911;-79
2022/05/16 09:35:31;;;;;;;11.52;3.83;;;;;;;22.25;57.85;101164.00;5114127;27;20479;-79
2022/05/16 09:37:58;;;;;;;11.25;3.50;;;;;;;22.33;56.49;101168.63;5116173;27;20088;-78
2022/05/16 09:40:31;;;;;;;14.20;4.20;;;;;;;22.37;56.31;101166.34;5090790;28;20063;-78
2022/05/16 09:43:03;;;;;;;15.38;4.53;;;;;;;;;;5108892;28;20019;-79
2022/05/16 09:45:29;;;;;;;11.05;4.30;;;;;;;22.49;55.91;101173.09;5108689;27;20417;-79
2022/05/16 09:47:54;;;;;;;12.70;4.65;;;;;;;22.60;56.93;101180.03;5109697;27;20023;-79
2022/05/16 09:50:24;;;;;;;14.43;4.35;;;;;;;22.72;55.58;101183.19;5117587;27;20047;-79
2022/05/16 09:53:09;;;;;;;17.73;4.75;;;;;;;22.86;55.37;101182.38;5106111;28;20028;-79
2022/05/16 09:55:54;;;;;;;15.23;5.07;;;;;;;22.88;54.57;101194.00;5087396;28;20028;-79
2022/05/16 09:58:31;;;;;;;15.55;4.72;;;;;;;22.99;55.06;101206.44;5085498;28;20489;-79
2022/05/16 10:01:06;;;;;;;13.85;4.95;;;;;;;23.07;53.94;101214.53;5107743;27;20055;-79
2022/05/16 10:03:43;;;;;;;14.10;4.47;;;;;;;23.17;55.35;101219.81;5106749;28;20023;-79
2022/05/16 10:06:25;;;;;;;18.67;5.25;;;;;;;23.28;53.88;101218.47;5117181;27;20119;-79
2022/05/16 10:08:50;;;;;;;15.52;4.88;;;;;;;23.35;55.05;101228.53;5105865;27;20034;-79
2022/05/16 10:11:21;;;;;;;15.82;5.18;;;;;;;23.36;53.57;101230.22;5089276;28;20486;-79
2022/05/16 10:13:47;;;;;;;16.33;5.20;;;;;;;23.30;54.32;101225.50;5088674;28;20019;-79
2022/05/16 10:16:15;;;;;;;12.93;4.57;;;;;;;23.20;54.93;101241.38;5116709;27;20031;-79
2022/05/16 10:19:10;;;;;;;12.40;4.85;;;;;;;23.02;54.89;101245.25;5080692;27;20423;-79
2022/05/16 10:21:50;;;;;;;17.15;4.90;;;;;;;22.87;55.40;101247.09;5111049;27;20378;-79
2022/05/16 10:24:17;;;;;;;19.58;5.38;;;;;;;22.71;56.61;101258.19;5114081;27;20057;-79
2022/05/16 10:26:46;;;;;;;16.83;5.22;;;;;;;22.55;59.14;101273.72;5104487;28;20441;-80
2022/05/16 10:29:16;;;;;;;17.02;4.78;;;;;;;22.35;60.79;101292.50;5094935;28;20479;-79
2022/05/16 10:35:07;;;;;;;17.17;5.90;;;;;;;22.00;63.54;101289.22;5114839;27;20064;-78
2022/05/16 10:37:36;;;;;;;16.35;5.70;;;;;;;21.82;65.43;101293.03;5105260;27;20490;-79
2022/05/16 10:40:40;;;;;;;16.08;5.20;;;;;;;21.79;65.95;101301.59;5095363;27;20050;-79
2022/05/16 10:43:15;;;;;;;18.20;5.88;;;;;;;21.69;69.19;101300.09;5090655;27;20441;-79
2022/05/16 10:45:51;;;;;;;16.92;5.65;;;;;;;21.73;69.62;101301.44;5105376;28;20019;-79
2022/05/16 10:48:25;;;;;;;16.02;5.93;;;;;;;21.85;70.04;101301.94;5088084;28;20074;-79
2022/05/16 10:51:01;;;;;;;20.60;6.43;;;;;;;21.94;68.48;101307.19;5104627;28;20027;-78
2022/05/16 10:53:30;;;;;;;17.58;5.60;;;;;;;21.95;66.37;101303.44;5091689;28;20027;-78
2022/05/16 10:56:08;;;;;;;19.13;6.22;;;;;;;22.02;67.91;101319.13;5087554;28;20027;-78
2022/05/16 10:58:48;;;;;;;17.65;6.47;;;;;;;22.05;65.36;101313.31;5086199;28;20020;-78
2022/05/16 11:01:24;;;;;;;18.23;6.47;;;;;;;22.07;64.23;101314.84;5070163;28;20035;-78
2022/05/16 11:04:27;;;;;;;19.13;6.78;;;;;;;22.05;64.46;101321.50;5082628;28;20093;-79
2022/05/16 11:07:05;;;;;;;23.83;6.55;;;;;;;21.98;63.57;101324.97;5094165;28;20023;-78
2022/05/16 11:10:07;;;;;;;19.73;5.88;;;;;;;21.93;63.98;101326.53;5086774;28;20034;-78
2022/05/16 11:12:44;;;;;;;17.08;6.03;;;;;;;21.84;63.71;101333.06;5086120;28;20494;-78
2022/05/16 11:15:23;;;;;;;18.73;6.63;;;;;;;21.74;62.91;101325.91;5106297;28;20564;-78
2022/05/16 11:18:22;;;;;;;14.90;5.97;;;;;;;21.66;63.19;101328.66;5092509;27;20058;-78
2022/05/16 11:20:51;;;;;;;;;;;;;;;21.66;63.88;101325.91;5105807;28;20538;-78
2022/05/16 11:23:21;;;;;;;;;;;;;;;21.66;63.26;101331.38;5108104;28;19911;-79
2022/05/16 11:25:49;;;;;;;;;;;;;;;21.63;63.46;101329.00;5088926;28;19916;-78
2022/05/16 11:28:34;;;;;;;20.77;7.40;;;;;;;21.56;64.58;101331.56;5106550;28;19971;-78
2022/05/16 11:31:02;;;;;;;19.92;7.85;;;;;;;21.51;64.36;101322.16;5105626;28;20457;-78
2022/05/16 11:33:37;;;;;;;24.60;8.30;;;;;;;21.45;65.95;101323.66;5115856;27;20037;-78
2022/05/16 11:36:25;;;;;;;22.35;7.70;;;;;;;21.42;66.89;101340.41;5112348;28;20398;-78
2022/05/16 11:39:22;;;;;;;19.10;8.18;;;;;;;21.48;66.03;101337.03;5092880;28;20385;-78
2022/05/16 11:42:14;;;;;;;19.95;7.00;;;;;;;21.52;65.13;101340.28;5109246;28;20024;-78
2022/05/16 11:45:14;;;;;;;19.05;7.57;;;;;;;21.55;65.24;101343.50;5092744;28;20104;-78
2022/05/16 11:48:25;;;;;;;19.48;7.85;;;;;;;21.55;64.90;101342.66;5110264;27;20070;-78
2022/05/16 11:51:17;;;;;;;16.10;6.78;;;;;;;21.50;64.44;101347.78;5099978;28;20146;-78
2022/05/16 11:53:50;;;;;;;20.48;7.82;;;;;;;21.46;64.25;101350.88;5116806;27;20410;-78
2022/05/16 12:02:20;;;;;;;24.35;10.20;;;;;;;21.34;66.60;101373.25;5110450;28;20454;-79
2022/05/16 12:04:52;;;;;;;23.17;10.93;;;;;;;21.22;67.53;101376.31;5076546;28;20485;-78
2022/05/16 12:07:21;;;;;;;26.20;11.35;;;;;;;21.11;68.19;101376.63;5111268;28;20084;-78